createdAt,value
2023-03-10T00:00:48.600Z,80.36
2023-03-10T00:03:22.803Z,80.35
2023-03-10T00:05:49.973Z,80.22
2023-03-10T00:08:17.013Z,81.00
2023-03-10T00:10:44.062Z,81.52
2023-03-10T00:13:11.060Z,82.20
2023-03-10T00:15:38.050Z,82.16
2023-03-10T00:18:05.139Z,82.11
2023-03-10T00:20:32.093Z,81.97
2023-03-10T00:22:59.158Z,81.83
2023-03-10T00:25:26.111Z,81.96
2023-03-10T00:27:53.116Z,81.86
2023-03-10T00:30:21.698Z,81.42
2023-03-10T00:32:50.255Z,81.54
2023-03-10T00:35:17.643Z,82.16
2023-03-10T00:37:46.534Z,82.49
2023-03-10T00:40:15.526Z,82.26
2023-03-10T00:42:42.528Z,81.55
2023-03-10T00:45:10.255Z,81.12
2023-03-10T00:47:37.179Z,80.99
2023-03-10T00:50:04.723Z,80.99
2023-03-10T00:52:32.580Z,81.17
2023-03-10T00:54:59.610Z,80.94
2023-03-10T00:57:26.695Z,80.89
2023-03-10T00:59:53.867Z,81.28
2023-03-10T01:02:20.916Z,81.71
2023-03-10T01:04:48.007Z,81.69
2023-03-10T01:07:15.221Z,81.52
2023-03-10T01:09:42.844Z,81.95
2023-03-10T01:12:09.844Z,81.65
2023-03-10T01:14:36.911Z,82.03
2023-03-10T01:17:04.858Z,81.84
2023-03-10T01:19:31.958Z,81.64
2023-03-10T01:22:01.178Z,81.32
2023-03-10T01:24:28.235Z,81.03
2023-03-10T01:26:55.252Z,81.02
2023-03-10T01:29:22.281Z,80.99
2023-03-10T01:31:49.278Z,80.63
2023-03-10T01:34:16.314Z,80.68
2023-03-10T01:36:43.335Z,80.74
2023-03-10T01:39:10.343Z,80.47
2023-03-10T01:41:38.832Z,80.67
2023-03-10T01:44:15.218Z,80.70
2023-03-10T01:46:43.829Z,80.81
2023-03-10T01:49:19.712Z,80.78
2023-03-10T01:51:51.189Z,81.04
2023-03-10T01:54:24.374Z,80.85
2023-03-10T01:56:53.808Z,81.10
2023-03-10T01:59:23.606Z,80.91
2023-03-10T02:01:52.419Z,81.08
2023-03-10T02:04:28.088Z,80.98
2023-03-10T02:06:57.321Z,80.83
2023-03-10T02:09:25.372Z,80.79
2023-03-10T02:11:54.731Z,80.70
2023-03-10T02:14:21.787Z,80.62
2023-03-10T02:16:49.739Z,80.44
2023-03-10T02:19:37.780Z,80.26
2023-03-10T02:22:08.104Z,80.18
2023-03-10T02:24:38.024Z,80.53
2023-03-10T02:27:10.734Z,80.30
2023-03-10T02:29:57.959Z,80.11
2023-03-10T02:32:29.479Z,80.34
2023-03-10T02:34:56.664Z,80.07
2023-03-10T02:37:30.028Z,79.91
2023-03-10T02:39:57.212Z,79.95
2023-03-10T02:42:30.794Z,79.94
2023-03-10T02:44:58.354Z,79.95
2023-03-10T02:47:25.448Z,80.27
2023-03-10T02:49:52.584Z,80.08
2023-03-10T02:52:41.208Z,80.15
2023-03-10T02:55:14.559Z,80.16
2023-03-10T02:57:41.670Z,79.92
2023-03-10T03:00:10.683Z,79.68
2023-03-10T03:02:38.008Z,79.74
2023-03-10T03:05:07.231Z,79.78
2023-03-10T03:07:34.406Z,79.91
2023-03-10T03:10:01.976Z,80.07
2023-03-10T03:12:29.536Z,79.97
2023-03-10T03:14:56.980Z,79.85
2023-03-10T03:17:23.979Z,79.88
2023-03-10T03:19:50.964Z,79.83
2023-03-10T03:22:18.173Z,80.22
2023-03-10T03:24:45.148Z,80.15
2023-03-10T03:27:12.191Z,80.29
2023-03-10T03:29:39.267Z,80.47
2023-03-10T03:32:06.948Z,80.82
2023-03-10T03:34:34.642Z,80.50
2023-03-10T03:37:03.525Z,80.14
2023-03-10T03:39:33.954Z,80.08
2023-03-10T03:42:03.336Z,80.22
2023-03-10T03:44:34.549Z,80.38
2023-03-10T03:47:01.817Z,80.56
2023-03-10T03:49:29.066Z,80.20
2023-03-10T03:51:56.257Z,80.29
2023-03-10T03:54:23.579Z,80.23
2023-03-10T03:56:50.660Z,80.48
2023-03-10T03:59:17.768Z,80.31
2023-03-10T04:01:44.855Z,80.30
2023-03-10T04:04:12.108Z,80.40
2023-03-10T04:06:40.970Z,80.54
2023-03-10T04:09:09.897Z,80.30
2023-03-10T04:11:36.926Z,80.12
2023-03-10T04:14:03.964Z,79.92
2023-03-10T04:16:31.219Z,81.41
2023-03-10T04:18:58.262Z,80.94
2023-03-10T04:21:25.603Z,80.56
2023-03-10T04:23:53.701Z,81.06
2023-03-10T04:26:24.255Z,81.00
2023-03-10T04:28:51.362Z,80.70
2023-03-10T04:31:19.538Z,80.60
2023-03-10T04:33:47.674Z,80.51
2023-03-10T04:36:15.369Z,80.55
2023-03-10T04:38:43.454Z,80.75
2023-03-10T04:41:11.135Z,80.95
2023-03-10T04:43:42.666Z,81.23
2023-03-10T04:46:10.738Z,81.31
2023-03-10T04:48:38.425Z,81.54
2023-03-10T04:51:08.953Z,81.93
2023-03-10T04:53:39.964Z,82.05
2023-03-10T04:56:07.918Z,81.97
2023-03-10T04:58:35.988Z,81.72
2023-03-10T05:01:11.204Z,81.53
2023-03-10T05:03:41.366Z,81.49
2023-03-10T05:06:14.915Z,81.35
2023-03-10T05:08:42.597Z,81.22
2023-03-10T05:11:10.244Z,81.33
2023-03-10T05:13:37.329Z,81.14
2023-03-10T05:16:11.347Z,81.19
2023-03-10T05:18:38.501Z,81.45
2023-03-10T05:21:06.261Z,81.37
2023-03-10T05:23:33.615Z,81.09
2023-03-10T05:26:05.668Z,80.68
2023-03-10T05:28:33.095Z,80.91
2023-03-10T05:31:00.705Z,81.08
2023-03-10T05:33:30.910Z,81.09
2023-03-10T05:35:59.123Z,81.04
2023-03-10T05:38:26.145Z,81.09
2023-03-10T05:40:53.567Z,80.98
2023-03-10T05:43:20.604Z,80.94
2023-03-10T05:45:58.309Z,80.93
2023-03-10T05:48:26.524Z,80.94
2023-03-10T05:51:08.753Z,81.03
2023-03-10T05:53:37.091Z,81.12
2023-03-10T05:56:09.956Z,81.12
2023-03-10T05:58:38.169Z,80.74
2023-03-10T06:01:06.254Z,80.91
2023-03-10T06:03:34.554Z,80.78
2023-03-10T06:06:02.307Z,80.72
2023-03-10T06:08:29.371Z,80.76
2023-03-10T06:10:57.346Z,79.79
2023-03-10T06:13:25.626Z,78.33
2023-03-10T06:15:54.970Z,78.69
2023-03-10T06:18:22.440Z,78.87
2023-03-10T06:20:49.948Z,78.37
2023-03-10T06:23:17.575Z,78.29
2023-03-10T06:25:44.985Z,78.47
2023-03-10T06:28:12.281Z,78.51
2023-03-10T06:30:39.306Z,78.34
2023-03-10T06:33:06.297Z,77.45
2023-03-10T06:35:33.354Z,76.59
2023-03-10T06:38:00.382Z,76.51
2023-03-10T06:40:27.322Z,76.50
2023-03-10T06:42:54.281Z,76.71
2023-03-10T06:45:21.398Z,76.58
2023-03-10T06:47:48.371Z,77.03
2023-03-10T06:50:16.293Z,76.91
2023-03-10T06:52:44.804Z,76.55
2023-03-10T06:55:13.246Z,76.74
2023-03-10T06:57:40.261Z,76.81
2023-03-10T07:00:11.068Z,76.34
2023-03-10T07:02:38.319Z,76.56
2023-03-10T07:05:07.156Z,76.04
2023-03-10T07:07:34.158Z,75.82
2023-03-10T07:10:01.247Z,75.42
2023-03-10T07:12:28.258Z,74.43
2023-03-10T07:14:55.267Z,74.13
2023-03-10T07:17:22.263Z,74.58
2023-03-10T07:19:49.241Z,74.02
2023-03-10T07:22:16.449Z,74.29
2023-03-10T07:24:43.411Z,73.49
2023-03-10T07:27:10.380Z,72.86
2023-03-10T07:29:37.345Z,73.16
2023-03-10T07:32:04.630Z,71.49
2023-03-10T07:34:31.599Z,70.58
2023-03-10T07:36:58.546Z,70.61
2023-03-10T07:39:25.662Z,70.56
2023-03-10T07:41:52.605Z,70.62
2023-03-10T07:44:19.758Z,68.13
2023-03-10T07:46:46.829Z,67.76
2023-03-10T07:49:13.891Z,68.10
2023-03-10T07:51:40.828Z,67.55
2023-03-10T07:54:08.105Z,66.92
2023-03-10T07:56:35.103Z,65.81
2023-03-10T07:59:02.102Z,66.51
2023-03-10T08:01:29.074Z,66.37
2023-03-10T08:03:58.149Z,66.43
2023-03-10T08:06:28.037Z,66.38
2023-03-10T08:08:55.230Z,66.20
2023-03-10T08:11:22.510Z,66.04
2023-03-10T08:13:50.029Z,66.41
2023-03-10T08:16:19.114Z,66.38
2023-03-10T08:18:46.143Z,66.74
2023-03-10T08:21:13.219Z,67.32
2023-03-10T08:23:40.457Z,67.84
2023-03-10T08:26:12.217Z,68.37
2023-03-10T08:28:40.198Z,68.48
2023-03-10T08:31:09.735Z,68.31
2023-03-10T08:33:37.235Z,67.95
2023-03-10T08:36:32.046Z,68.21
2023-03-10T08:39:00.145Z,67.57
2023-03-10T08:41:34.578Z,67.72
2023-03-10T08:44:03.536Z,67.09
2023-03-10T08:46:31.983Z,66.40
2023-03-10T08:48:59.525Z,66.12
2023-03-10T08:51:27.806Z,65.28
2023-03-10T08:53:54.972Z,65.02
2023-03-10T08:56:23.654Z,64.71
2023-03-10T08:58:53.674Z,64.42
2023-03-10T09:01:20.757Z,64.30
2023-03-10T09:03:47.876Z,64.23
2023-03-10T09:06:15.095Z,63.61
2023-03-10T09:08:43.755Z,63.04
2023-03-10T09:11:16.600Z,62.74
2023-03-10T09:13:43.617Z,62.47
2023-03-10T09:16:11.554Z,62.15
2023-03-10T09:18:39.122Z,61.77
2023-03-10T09:21:06.267Z,61.59
2023-03-10T09:23:33.442Z,61.39
2023-03-10T09:26:00.453Z,61.23
2023-03-10T09:28:27.362Z,60.91
2023-03-10T09:30:54.529Z,59.95
2023-03-10T09:33:21.879Z,59.35
2023-03-10T09:36:06.064Z,59.57
2023-03-10T09:38:34.701Z,59.61
2023-03-10T09:41:19.546Z,58.79
2023-03-10T09:43:55.531Z,58.98
2023-03-10T09:46:26.523Z,59.45
2023-03-10T09:49:45.884Z,59.80
2023-03-10T09:52:41.104Z,58.75
2023-03-10T09:55:29.891Z,58.71
2023-03-10T09:57:57.482Z,59.07
2023-03-10T10:00:38.285Z,59.00
2023-03-10T10:03:19.744Z,59.16
2023-03-10T10:05:49.888Z,59.13
2023-03-10T10:08:28.897Z,59.21
2023-03-10T10:10:58.678Z,59.46
2023-03-10T10:13:29.962Z,59.41
2023-03-10T10:16:28.275Z,59.54
2023-03-10T10:19:12.622Z,59.03
2023-03-10T10:21:53.004Z,58.72
2023-03-10T10:24:20.951Z,58.25
2023-03-10T10:26:48.503Z,58.13
2023-03-10T10:29:23.481Z,56.37
2023-03-10T10:32:13.225Z,55.97
2023-03-10T10:34:42.441Z,55.59
2023-03-10T10:37:29.328Z,55.03
2023-03-10T10:39:58.312Z,54.75
2023-03-10T10:42:31.648Z,54.35
2023-03-10T10:45:02.718Z,53.61
2023-03-10T10:47:32.563Z,52.63
2023-03-10T10:50:19.361Z,52.38
2023-03-10T10:52:49.994Z,50.92
2023-03-10T10:55:28.417Z,50.65
2023-03-10T10:58:00.958Z,49.57
2023-03-10T11:00:31.484Z,50.88
2023-03-10T11:02:59.153Z,50.78
2023-03-10T11:05:38.236Z,48.37
2023-03-10T11:08:40.106Z,49.83
2023-03-10T11:11:28.936Z,49.62
2023-03-10T11:14:29.573Z,48.89
2023-03-10T11:17:14.874Z,50.06
2023-03-10T11:19:53.543Z,50.44
2023-03-10T11:22:46.982Z,49.54
2023-03-10T11:25:21.669Z,49.31
2023-03-10T11:28:14.144Z,48.85
2023-03-10T11:31:08.001Z,48.67
2023-03-10T11:33:39.869Z,48.73
2023-03-10T11:36:28.673Z,49.34
2023-03-10T11:39:12.653Z,48.89
2023-03-10T11:41:47.815Z,48.99
2023-03-10T11:44:25.283Z,49.58
2023-03-10T11:47:17.452Z,49.78
2023-03-10T11:49:53.530Z,49.27
2023-03-10T11:52:24.518Z,48.26
2023-03-10T11:55:03.451Z,48.60
2023-03-10T11:57:39.502Z,48.36
2023-03-10T12:00:18.070Z,47.96
2023-03-10T12:03:17.836Z,48.44
2023-03-10T12:05:55.829Z,49.05
2023-03-10T12:08:25.214Z,49.45
2023-03-10T12:10:53.763Z,49.80
2023-03-10T12:13:24.624Z,49.98
2023-03-10T12:15:55.244Z,49.44
2023-03-10T12:18:23.968Z,49.46
2023-03-10T12:21:25.757Z,49.18
2023-03-10T12:23:55.466Z,49.36
2023-03-10T12:26:37.425Z,47.29
2023-03-10T12:29:19.655Z,45.36
2023-03-10T12:31:52.523Z,43.81
2023-03-10T12:34:31.059Z,43.72
2023-03-10T12:37:12.009Z,44.27
2023-03-10T12:39:41.160Z,43.36
2023-03-10T12:42:26.532Z,43.36
2023-03-10T12:45:21.125Z,43.13
2023-03-10T12:48:02.866Z,42.85
2023-03-10T12:50:36.649Z,41.54
2023-03-10T12:53:27.376Z,40.85
2023-03-10T12:56:19.796Z,40.70
2023-03-10T12:59:04.432Z,40.76
2023-03-10T13:01:40.564Z,40.99
2023-03-10T13:04:17.596Z,41.26
2023-03-10T13:06:48.116Z,41.21
2023-03-10T13:09:47.414Z,41.46
2023-03-10T13:12:23.913Z,41.45
2023-03-10T13:14:55.992Z,41.48
2023-03-10T13:17:29.679Z,41.79
2023-03-10T13:19:58.137Z,41.72
2023-03-10T13:22:25.300Z,41.98
2023-03-10T13:25:00.866Z,41.64
2023-03-10T13:27:31.226Z,41.75
2023-03-10T13:30:25.898Z,41.83
2023-03-10T13:33:00.907Z,42.15
2023-03-10T13:35:41.375Z,42.17
2023-03-10T13:38:15.835Z,42.16
2023-03-10T13:40:45.907Z,42.27
2023-03-10T13:43:43.452Z,42.17
2023-03-10T13:46:21.014Z,42.40
2023-03-10T13:48:49.302Z,42.56
2023-03-10T13:51:20.280Z,42.64
2023-03-10T13:53:52.084Z,42.90
2023-03-10T13:56:20.812Z,43.05
2023-03-10T13:58:49.855Z,43.32
2023-03-10T14:01:20.136Z,43.23
2023-03-10T14:03:53.136Z,43.61
2023-03-10T14:06:20.206Z,43.87
2023-03-10T14:08:47.303Z,44.17
2023-03-10T14:11:34.057Z,44.17
2023-03-10T14:14:01.994Z,44.29
2023-03-10T14:16:49.423Z,44.24
2023-03-10T14:19:41.241Z,44.33
2023-03-10T14:22:42.785Z,44.37
2023-03-10T14:25:15.873Z,44.47
2023-03-10T14:27:55.803Z,44.23
2023-03-10T14:30:33.206Z,44.62
2023-03-10T14:33:00.984Z,44.56
2023-03-10T14:35:29.267Z,44.51
2023-03-10T14:37:57.138Z,44.54
2023-03-10T14:40:25.006Z,44.95
2023-03-10T14:42:53.732Z,44.87
2023-03-10T14:45:28.913Z,44.88
2023-03-10T14:47:58.399Z,45.17
2023-03-10T14:50:27.441Z,44.40
2023-03-10T14:52:54.919Z,44.53
2023-03-10T14:55:22.658Z,44.19
2023-03-10T14:57:58.242Z,43.88
2023-03-10T15:00:25.387Z,43.92
2023-03-10T15:02:52.345Z,44.02
2023-03-10T15:05:22.345Z,44.60
2023-03-10T15:07:49.336Z,44.45
2023-03-10T15:10:20.238Z,44.95
2023-03-10T15:12:53.195Z,44.72
2023-03-10T15:15:24.490Z,45.04
2023-03-10T15:17:51.984Z,44.94
2023-03-10T15:20:21.784Z,45.24
2023-03-10T15:22:49.410Z,45.43
2023-03-10T15:25:19.317Z,45.56
2023-03-10T15:27:47.979Z,45.46
2023-03-10T15:30:23.968Z,45.52
2023-03-10T15:32:51.474Z,45.69
2023-03-10T15:35:21.078Z,45.77
2023-03-10T15:37:50.125Z,45.98
2023-03-10T15:40:22.904Z,46.29
2023-03-10T15:42:50.442Z,46.60
2023-03-10T15:45:18.048Z,46.96
2023-03-10T15:47:45.934Z,47.40
2023-03-10T15:50:14.075Z,47.89
2023-03-10T15:52:48.922Z,48.69
2023-03-10T15:55:16.761Z,49.81
2023-03-10T15:57:44.791Z,50.84
2023-03-10T16:00:12.443Z,51.98
2023-03-10T16:02:39.439Z,52.47
2023-03-10T16:05:06.917Z,52.56
2023-03-10T16:07:34.044Z,53.12
2023-03-10T16:10:01.152Z,53.52
2023-03-10T16:12:28.165Z,53.97
2023-03-10T16:14:55.158Z,53.73
2023-03-10T16:17:23.344Z,54.23
2023-03-10T16:19:50.754Z,54.55
2023-03-10T16:22:17.825Z,54.28
2023-03-10T16:24:44.968Z,54.09
2023-03-10T16:27:12.651Z,54.70
2023-03-10T16:29:40.316Z,54.99
2023-03-10T16:32:08.831Z,55.62
2023-03-10T16:34:35.882Z,55.73
2023-03-10T16:37:03.093Z,55.99
2023-03-10T16:39:30.793Z,55.99
2023-03-10T16:41:58.787Z,55.83
2023-03-10T16:44:25.897Z,56.06
2023-03-10T16:46:52.985Z,56.54
2023-03-10T16:49:20.102Z,56.62
2023-03-10T16:51:47.887Z,56.99
2023-03-10T16:54:17.905Z,57.68
2023-03-10T16:56:47.236Z,57.60
2023-03-10T16:59:18.253Z,57.76
2023-03-10T17:01:46.184Z,58.02
2023-03-10T17:04:13.787Z,58.53
2023-03-10T17:06:41.332Z,57.92
2023-03-10T17:09:10.150Z,58.42
2023-03-10T17:11:50.481Z,59.24
2023-03-10T17:14:19.277Z,60.29
2023-03-10T17:16:47.577Z,60.11
2023-03-10T17:19:20.538Z,60.17
2023-03-10T17:21:49.325Z,59.94
2023-03-10T17:24:17.847Z,60.00
2023-03-10T17:26:45.823Z,60.51
2023-03-10T17:29:13.383Z,60.35
2023-03-10T17:31:40.850Z,60.25
2023-03-10T17:34:12.180Z,60.38
2023-03-10T17:36:39.246Z,60.27
2023-03-10T17:39:07.124Z,60.31
2023-03-10T17:41:35.409Z,60.56
2023-03-10T17:44:05.772Z,60.91
2023-03-10T17:46:33.088Z,61.02
2023-03-10T17:49:00.435Z,61.21
2023-03-10T17:51:30.328Z,61.24
2023-03-10T17:53:59.353Z,61.58
2023-03-10T17:56:27.663Z,61.47
2023-03-10T17:58:57.839Z,61.43
2023-03-10T18:01:28.394Z,61.42
2023-03-10T18:03:56.896Z,61.66
2023-03-10T18:06:30.244Z,61.88
2023-03-10T18:08:59.094Z,61.79
2023-03-10T18:11:27.384Z,61.75
2023-03-10T18:13:54.472Z,61.74
2023-03-10T18:16:24.769Z,61.82
2023-03-10T18:18:52.590Z,61.69
2023-03-10T18:21:20.872Z,61.72
2023-03-10T18:23:49.082Z,61.86
2023-03-10T18:26:27.137Z,61.88
2023-03-10T18:28:59.216Z,61.91
2023-03-10T18:31:29.576Z,62.07
2023-03-10T18:33:56.869Z,61.87
2023-03-10T18:36:24.525Z,62.08
2023-03-10T18:38:52.551Z,62.12
2023-03-10T18:41:22.230Z,62.09
2023-03-10T18:43:49.566Z,61.89
2023-03-10T18:46:17.021Z,61.48
2023-03-10T18:48:44.233Z,61.38
2023-03-10T18:51:12.141Z,61.35
2023-03-10T18:53:39.918Z,61.67
2023-03-10T18:56:07.514Z,61.74
2023-03-10T18:58:34.792Z,61.58
2023-03-10T19:01:01.940Z,60.79
2023-03-10T19:03:30.508Z,60.01
2023-03-10T19:05:57.884Z,59.37
2023-03-10T19:08:26.551Z,59.05
2023-03-10T19:10:56.264Z,58.64
2023-03-10T19:13:24.915Z,58.75
2023-03-10T19:15:52.062Z,58.60
2023-03-10T19:18:19.224Z,58.63
2023-03-10T19:20:46.482Z,58.31
2023-03-10T19:23:14.830Z,58.36
2023-03-10T19:25:42.582Z,58.00
2023-03-10T19:28:09.655Z,57.07
2023-03-10T19:30:42.178Z,57.18
2023-03-10T19:33:10.445Z,56.94
2023-03-10T19:35:38.048Z,56.16
2023-03-10T19:38:05.247Z,55.91
2023-03-10T19:40:32.974Z,56.29
2023-03-10T19:43:00.019Z,56.35
2023-03-10T19:45:27.830Z,56.14
2023-03-10T19:47:57.371Z,55.90
2023-03-10T19:50:25.608Z,56.23
2023-03-10T19:52:52.909Z,56.38
2023-03-10T19:55:22.653Z,56.36
2023-03-10T19:57:52.092Z,56.33
2023-03-10T20:00:24.268Z,56.43
2023-03-10T20:02:53.226Z,56.66
2023-03-10T20:05:21.132Z,57.48
2023-03-10T20:07:48.442Z,58.71
2023-03-10T20:10:16.938Z,58.76
2023-03-10T20:12:46.450Z,59.00
2023-03-10T20:15:14.893Z,59.05
2023-03-10T20:17:41.948Z,58.75
2023-03-10T20:20:09.917Z,58.62
2023-03-10T20:22:38.956Z,58.54
2023-03-10T20:25:07.393Z,58.03
2023-03-10T20:27:34.958Z,58.29
2023-03-10T20:30:08.414Z,58.80
2023-03-10T20:32:35.939Z,58.72
2023-03-10T20:35:04.363Z,58.69
2023-03-10T20:37:33.221Z,58.59
2023-03-10T20:40:00.461Z,58.58
2023-03-10T20:42:27.755Z,58.31
2023-03-10T20:44:54.774Z,58.49
2023-03-10T20:47:21.852Z,58.40
2023-03-10T20:49:48.820Z,58.50
2023-03-10T20:52:15.901Z,58.17
2023-03-10T20:54:42.893Z,58.10
2023-03-10T20:57:10.583Z,57.93
2023-03-10T20:59:37.659Z,58.35
2023-03-10T21:02:05.493Z,58.59
2023-03-10T21:04:32.596Z,58.81
2023-03-10T21:06:59.623Z,58.58
2023-03-10T21:09:26.612Z,58.61
2023-03-10T21:11:53.721Z,58.74
2023-03-10T21:14:20.716Z,58.91
2023-03-10T21:16:47.914Z,58.68
2023-03-10T21:19:15.040Z,58.63
2023-03-10T21:21:42.290Z,58.61
2023-03-10T21:24:09.297Z,58.73
2023-03-10T21:26:36.331Z,58.70
2023-03-10T21:29:03.818Z,58.93
2023-03-10T21:31:30.786Z,59.19
2023-03-10T21:33:57.787Z,59.71
2023-03-10T21:36:24.883Z,59.94
2023-03-10T21:38:52.529Z,60.54
2023-03-10T21:41:26.073Z,60.34
2023-03-10T21:43:57.905Z,60.57
2023-03-10T21:46:25.610Z,60.53
2023-03-10T21:48:53.017Z,60.37
2023-03-10T21:51:24.003Z,60.11
2023-03-10T21:53:53.181Z,59.99
2023-03-10T21:56:22.069Z,59.77
2023-03-10T21:58:51.840Z,60.11
2023-03-10T22:01:20.310Z,60.11
2023-03-10T22:03:48.529Z,60.16
2023-03-10T22:06:16.271Z,60.20
2023-03-10T22:08:43.353Z,60.47
2023-03-10T22:11:11.711Z,60.94
2023-03-10T22:13:39.113Z,61.46
2023-03-10T22:16:09.135Z,61.95
2023-03-10T22:18:36.185Z,61.89
2023-03-10T22:21:03.350Z,62.70
2023-03-10T22:23:30.344Z,63.33
2023-03-10T22:25:57.424Z,62.73
2023-03-10T22:28:24.458Z,62.62
2023-03-10T22:30:51.520Z,62.38
2023-03-10T22:33:18.762Z,62.74
2023-03-10T22:35:51.613Z,62.73
2023-03-10T22:38:20.078Z,62.83
2023-03-10T22:40:47.806Z,63.29
2023-03-10T22:43:15.230Z,63.17
2023-03-10T22:45:42.300Z,63.19
2023-03-10T22:48:09.495Z,63.21
2023-03-10T22:50:39.616Z,62.85
2023-03-10T22:53:12.124Z,62.74
2023-03-10T22:55:41.894Z,62.96
2023-03-10T22:58:10.579Z,62.75
2023-03-10T23:00:39.043Z,62.63
2023-03-10T23:03:06.857Z,62.71
2023-03-10T23:05:34.052Z,62.86
2023-03-10T23:08:01.192Z,62.90
2023-03-10T23:10:31.502Z,62.92
2023-03-10T23:13:01.203Z,63.18
2023-03-10T23:15:37.078Z,63.34
2023-03-10T23:18:05.488Z,63.24
2023-03-10T23:20:44.917Z,63.38
2023-03-10T23:23:14.074Z,63.55
2023-03-10T23:25:46.246Z,63.59
2023-03-10T23:28:14.805Z,63.63
2023-03-10T23:30:43.743Z,63.94
2023-03-10T23:33:13.665Z,63.91
2023-03-10T23:35:40.738Z,63.85
2023-03-10T23:38:08.338Z,64.04
2023-03-10T23:40:37.404Z,64.82
2023-03-10T23:43:07.448Z,65.23
2023-03-10T23:45:37.132Z,65.37
2023-03-10T23:48:07.019Z,65.79
2023-03-10T23:50:37.825Z,65.76
2023-03-10T23:53:06.273Z,65.62
2023-03-10T23:55:36.688Z,65.60
2023-03-10T23:58:04.641Z,65.78
